Big Bear Station Historical Data
Daily Summary for December 6, 2017 Units:  English    Metric   Both
« Previous Day
Next Day »
Daily Weekly Monthly Yearly Custom
  High: Low: Average:
Temperature: 46.8 °F 21.6 °F 32.8 °F
Dew Point: 10.4 °F -2.9 °F 4.5 °F
Humidity: 51 % 16 % 32 %
Wind Speed: 4.7 mph 0.0 mph 0.9 mph
Wind Gust: -999.0 mph - -
Wind:- - SSW
Pressure: 30.35 in 30.23 in -
Precipitation: 0.00 in    
Historical Graphs
 
 
Tabular Data for December 6, 2017
Time Temperature Dew Point Pressure Wind Wind Speed Wind Gust Humidity Rainfall Rate (Hourly)
00:14 23.0 °F 1.1 °F 30.24 in Calm   -999.0 mph 38 % 0 in
00:29 22.6 °F 0.8 °F 30.24 in Calm   -999.0 mph 38 % 0 in
00:45 22.6 °F 1.3 °F 30.24 in Calm   -999.0 mph 39 % 0 in
01:00 22.6 °F 1.9 °F 30.24 in Calm   -999.0 mph 40 % 0 in
01:15 22.6 °F 2.9 °F 30.24 in Calm   -999.0 mph 42 % 0 in
01:30 23.5 °F 3.2 °F 30.24 in Calm   -999.0 mph 41 % 0 in
01:46 23.0 °F 2.8 °F 30.24 in Calm   -999.0 mph 41 % 0 in
02:01 22.8 °F 2.6 °F 30.24 in Calm   -999.0 mph 41 % 0 in
02:16 22.5 °F 2.3 °F 30.24 in Calm   -999.0 mph 41 % 0 in
02:31 22.5 °F 2.3 °F 30.24 in Calm   -999.0 mph 41 % 0 in
02:46 22.1 °F 3.0 °F 30.24 in Calm   -999.0 mph 43 % 0 in
03:02 21.9 °F 3.3 °F 30.24 in Calm   -999.0 mph 44 % 0 in
03:17 21.6 °F 4.9 °F 30.23 in Calm   -999.0 mph 48 % 0 in
03:32 21.7 °F 6.3 °F 30.23 in Calm   -999.0 mph 51 % 0 in
04:02 22.8 °F 6.0 °F 30.23 in Calm   -999.0 mph 48 % 0 in
04:18 23.4 °F 4.2 °F 30.24 in Calm   -999.0 mph 43 % 0 in
04:33 23.2 °F 3.5 °F 30.24 in Calm   -999.0 mph 42 % 0 in
04:48 23.4 °F 4.7 °F 30.23 in Calm   -999.0 mph 44 % 0 in
05:03 22.3 °F 6.0 °F 30.24 in Calm   -999.0 mph 49 % 0 in
05:18 23.0 °F 7.1 °F 30.24 in Calm   -999.0 mph 50 % 0 in
05:34 23.2 °F 6.4 °F 30.24 in Calm   -999.0 mph 48 % 0 in
05:49 23.7 °F 7.3 °F 30.25 in Calm   -999.0 mph 49 % 0 in
06:04 23.7 °F 7.3 °F 30.25 in Calm   -999.0 mph 49 % 0 in
06:19 24.1 °F 6.8 °F 30.26 in Calm   -999.0 mph 47 % 0 in
06:35 24.4 °F 5.1 °F 30.26 in ESE 1.1 mph -999.0 mph 43 % 0 in
06:50 25.2 °F 4.8 °F 30.26 in Calm   -999.0 mph 41 % 0 in
07:05 26.1 °F 3.9 °F 30.26 in Calm   -999.0 mph 38 % 0 in
07:20 27.5 °F 4.6 °F 30.26 in Calm   -999.0 mph 37 % 0 in
07:35 28.6 °F 3.7 °F 30.27 in Calm   -999.0 mph 34 % 0 in
07:51 28.9 °F 1.3 °F 30.28 in Calm   -999.0 mph 30 % 0 in
08:06 29.1 °F 0.8 °F 30.28 in Calm   -999.0 mph 29 % 0 in
08:21 30.9 °F 0.0 °F 30.29 in NNE 1.7 mph -999.0 mph 26 % 0 in
08:36 32.0 °F -0.8 °F 30.29 in Calm   -999.0 mph 24 % 0 in
08:51 33.6 °F -1.3 °F 30.29 in Calm   -999.0 mph 22 % 0 in
09:07 35.2 °F -1.9 °F 30.29 in NW 1.7 mph -999.0 mph 20 % 0 in
09:22 36.7 °F -2.9 °F 30.29 in West 2.2 mph -999.0 mph 18 % 0 in
09:53 40.3 °F -2.4 °F 30.30 in SE 1.1 mph -999.0 mph 16 % 0 in
10:08 40.1 °F -2.6 °F 30.30 in ESE 4.7 mph -999.0 mph 16 % 0 in
10:23 40.8 °F -0.7 °F 30.30 in NNE 1.7 mph -999.0 mph 17 % 0 in
10:38 41.5 °F -0.1 °F 30.30 in WNW 2.2 mph -999.0 mph 17 % 0 in
10:53 42.8 °F 0.9 °F 30.29 in NNW 3.2 mph -999.0 mph 17 % 0 in
11:09 43.2 °F 0.0 °F 30.29 in NNE 2.2 mph -999.0 mph 16 % 0 in
11:24 43.3 °F 1.3 °F 30.29 in North 4.2 mph -999.0 mph 17 % 0 in
11:39 43.5 °F 1.5 °F 30.29 in NE 1.7 mph -999.0 mph 17 % 0 in
11:54 44.8 °F 2.6 °F 30.28 in SSE 1.7 mph -999.0 mph 17 % 0 in
12:09 45.3 °F 4.2 °F 30.28 in NNW 2.7 mph -999.0 mph 18 % 0 in
12:25 46.6 °F 5.3 °F 30.28 in NW 2.7 mph -999.0 mph 18 % 0 in
12:40 46.8 °F 6.7 °F 30.27 in North 1.7 mph -999.0 mph 19 % 0 in
12:55 46.8 °F 5.5 °F 30.27 in SW 1.7 mph -999.0 mph 18 % 0 in
13:10 46.6 °F 5.3 °F 30.27 in Calm   -999.0 mph 18 % 0 in
13:26 46.0 °F 4.8 °F 30.26 in East 1.7 mph -999.0 mph 18 % 0 in
13:41 46.0 °F 6.0 °F 30.26 in NE 2.7 mph -999.0 mph 19 % 0 in
13:56 46.2 °F 6.2 °F 30.26 in Calm   -999.0 mph 19 % 0 in
14:11 45.1 °F 6.4 °F 30.26 in ENE 2.2 mph -999.0 mph 20 % 0 in
14:26 44.4 °F 6.9 °F 30.27 in Calm   -999.0 mph 21 % 0 in
14:42 43.7 °F 6.3 °F 30.27 in South 1.7 mph -999.0 mph 21 % 0 in
14:57 42.8 °F 6.5 °F 30.27 in NW 1.7 mph -999.0 mph 22 % 0 in
15:12 42.1 °F 6.9 °F 30.28 in Calm   -999.0 mph 23 % 0 in
15:27 41.4 °F 6.3 °F 30.28 in South 1.1 mph -999.0 mph 23 % 0 in
15:42 40.5 °F 5.6 °F 30.28 in South 2.7 mph -999.0 mph 23 % 0 in
15:58 39.2 °F 4.5 °F 30.29 in Calm   -999.0 mph 23 % 0 in
16:13 38.1 °F 5.3 °F 30.29 in NNW 2.2 mph -999.0 mph 25 % 0 in
16:28 37.2 °F 6.3 °F 30.29 in NW 2.7 mph -999.0 mph 27 % 0 in
16:43 36.1 °F 6.1 °F 30.29 in Calm   -999.0 mph 28 % 0 in
16:58 34.9 °F 5.8 °F 30.30 in Calm   -999.0 mph 29 % 0 in
17:14 34.0 °F 7.2 °F 30.31 in Calm   -999.0 mph 32 % 0 in
17:29 33.3 °F 5.9 °F 30.30 in Calm   -999.0 mph 31 % 0 in
17:44 32.7 °F 6.1 °F 30.32 in Calm   -999.0 mph 32 % 0 in
17:59 33.6 °F 7.5 °F 30.33 in SE 3.2 mph -999.0 mph 33 % 0 in
18:14 32.5 °F 7.2 °F 30.32 in Calm   -999.0 mph 34 % 0 in
18:30 32.0 °F 7.4 °F 30.33 in Calm   -999.0 mph 35 % 0 in
18:45 31.6 °F 7.7 °F 30.32 in Calm   -999.0 mph 36 % 0 in
19:00 31.6 °F 8.3 °F 30.32 in NNW 2.2 mph -999.0 mph 37 % 0 in
19:15 32.4 °F 9.0 °F 30.32 in SSE 2.7 mph -999.0 mph 37 % 0 in
19:30 33.1 °F 10.2 °F 30.32 in ESE 1.7 mph -999.0 mph 38 % 0 in
19:46 32.7 °F 10.4 °F 30.33 in Calm   -999.0 mph 39 % 0 in
20:01 32.4 °F 9.6 °F 30.33 in North 2.2 mph -999.0 mph 38 % 0 in
20:16 32.4 °F 9.6 °F 30.33 in NE 1.7 mph -999.0 mph 38 % 0 in
20:31 32.4 °F 9.0 °F 30.33 in Calm   -999.0 mph 37 % 0 in
20:47 32.2 °F 8.8 °F 30.32 in ESE 2.2 mph -999.0 mph 37 % 0 in
21:02 32.2 °F 8.8 °F 30.32 in SW 3.7 mph -999.0 mph 37 % 0 in
21:17 33.6 °F 8.8 °F 30.32 in Calm   -999.0 mph 35 % 0 in
21:32 32.7 °F 7.4 °F 30.33 in South 1.1 mph -999.0 mph 34 % 0 in
21:47 32.7 °F 6.7 °F 30.33 in Calm   -999.0 mph 33 % 0 in
22:18 31.6 °F 5.1 °F 30.33 in Calm   -999.0 mph 32 % 0 in
22:33 31.6 °F 4.4 °F 30.34 in Calm   -999.0 mph 31 % 0 in
22:48 31.6 °F 4.4 °F 30.34 in Calm   -999.0 mph 31 % 0 in
23:03 32.2 °F 3.5 °F 30.34 in SSE 4.2 mph -999.0 mph 29 % 0 in
23:19 32.2 °F 2.7 °F 30.34 in South 2.2 mph -999.0 mph 28 % 0 in
23:34 31.6 °F 2.2 °F 30.34 in SSW 1.7 mph -999.0 mph 28 % 0 in
23:49 30.9 °F 2.3 °F 30.35 in Calm   -999.0 mph 29 % 0 in
Big Bear CA Weather
Compliments of Weather Underground - 1.5 mb